sensor_id;sensor_type;location;lat;lon;timestamp;P1;durP1;ratioP1;P2;durP2;ratioP2
7933;SDS011;4012;48.896;9.192;2022-07-23T00:00:00;4.90;;;4.20;;
7933;SDS011;4012;48.896;9.192;2022-07-23T00:02:25;5.00;;;4.57;;
7933;SDS011;4012;48.896;9.192;2022-07-23T00:04:51;4.87;;;4.40;;
7933;SDS011;4012;48.896;9.192;2022-07-23T00:07:17;5.87;;;3.83;;
7933;SDS011;4012;48.896;9.192;2022-07-23T00:09:42;5.50;;;4.37;;
7933;SDS011;4012;48.896;9.192;2022-07-23T00:12:08;4.63;;;3.73;;
7933;SDS011;4012;48.896;9.192;2022-07-23T00:14:34;4.07;;;3.67;;
7933;SDS011;4012;48.896;9.192;2022-07-23T00:16:59;6.27;;;4.00;;
7933;SDS011;4012;48.896;9.192;2022-07-23T00:19:25;6.00;;;3.40;;
7933;SDS011;4012;48.896;9.192;2022-07-23T00:21:50;4.13;;;3.40;;
7933;SDS011;4012;48.896;9.192;2022-07-23T00:24:16;6.37;;;3.40;;
7933;SDS011;4012;48.896;9.192;2022-07-23T00:26:41;3.70;;;3.40;;
7933;SDS011;4012;48.896;9.192;2022-07-23T00:29:07;5.13;;;3.43;;
7933;SDS011;4012;48.896;9.192;2022-07-23T00:31:33;5.57;;;3.43;;
7933;SDS011;4012;48.896;9.192;2022-07-23T00:33:58;4.10;;;3.70;;
7933;SDS011;4012;48.896;9.192;2022-07-23T00:36:26;5.57;;;3.40;;
7933;SDS011;4012;48.896;9.192;2022-07-23T00:38:52;3.90;;;3.23;;
7933;SDS011;4012;48.896;9.192;2022-07-23T00:41:18;4.43;;;3.30;;
7933;SDS011;4012;48.896;9.192;2022-07-23T00:43:44;4.20;;;3.40;;
7933;SDS011;4012;48.896;9.192;2022-07-23T00:46:09;3.57;;;3.27;;
7933;SDS011;4012;48.896;9.192;2022-07-23T00:48:35;4.50;;;3.70;;
7933;SDS011;4012;48.896;9.192;2022-07-23T00:51:01;3.40;;;3.10;;
7933;SDS011;4012;48.896;9.192;2022-07-23T00:53:26;3.73;;;3.43;;
7933;SDS011;4012;48.896;9.192;2022-07-23T00:55:53;3.33;;;2.97;;
7933;SDS011;4012;48.896;9.192;2022-07-23T00:58:19;3.37;;;3.07;;
7933;SDS011;4012;48.896;9.192;2022-07-23T01:00:45;3.70;;;3.40;;
7933;SDS011;4012;48.896;9.192;2022-07-23T01:03:11;3.30;;;3.10;;
7933;SDS011;4012;48.896;9.192;2022-07-23T01:05:37;3.53;;;3.27;;
7933;SDS011;4012;48.896;9.192;2022-07-23T01:08:03;4.47;;;3.33;;
7933;SDS011;4012;48.896;9.192;2022-07-23T01:10:30;3.83;;;3.40;;
7933;SDS011;4012;48.896;9.192;2022-07-23T01:12:56;3.87;;;3.20;;
7933;SDS011;4012;48.896;9.192;2022-07-23T01:15:30;3.70;;;3.40;;
7933;SDS011;4012;48.896;9.192;2022-07-23T01:17:57;4.30;;;3.70;;
7933;SDS011;4012;48.896;9.192;2022-07-23T01:20:22;4.40;;;3.47;;
7933;SDS011;4012;48.896;9.192;2022-07-23T01:22:48;3.40;;;3.10;;
7933;SDS011;4012;48.896;9.192;2022-07-23T01:25:14;3.43;;;3.13;;
7933;SDS011;4012;48.896;9.192;2022-07-23T01:27:39;4.50;;;3.60;;
7933;SDS011;4012;48.896;9.192;2022-07-23T01:30:06;5.07;;;3.70;;
7933;SDS011;4012;48.896;9.192;2022-07-23T01:32:32;3.53;;;3.23;;
7933;SDS011;4012;48.896;9.192;2022-07-23T01:34:58;4.37;;;3.97;;
7933;SDS011;4012;48.896;9.192;2022-07-23T01:37:23;4.30;;;3.50;;
7933;SDS011;4012;48.896;9.192;2022-07-23T01:39:49;4.03;;;3.63;;
7933;SDS011;4012;48.896;9.192;2022-07-23T01:42:15;4.17;;;3.77;;
7933;SDS011;4012;48.896;9.192;2022-07-23T01:44:40;4.17;;;3.67;;
7933;SDS011;4012;48.896;9.192;2022-07-23T01:47:06;4.13;;;3.73;;
7933;SDS011;4012;48.896;9.192;2022-07-23T01:49:31;3.87;;;3.50;;
7933;SDS011;4012;48.896;9.192;2022-07-23T01:51:57;3.47;;;3.20;;
7933;SDS011;4012;48.896;9.192;2022-07-23T01:54:30;3.97;;;3.63;;
7933;SDS011;4012;48.896;9.192;2022-07-23T01:56:57;4.43;;;3.53;;
7933;SDS011;4012;48.896;9.192;2022-07-23T01:59:24;4.00;;;3.10;;
7933;SDS011;4012;48.896;9.192;2022-07-23T02:01:50;3.83;;;3.53;;
7933;SDS011;4012;48.896;9.192;2022-07-23T02:04:19;4.70;;;3.53;;
7933;SDS011;4012;48.896;9.192;2022-07-23T02:06:46;5.40;;;3.60;;
7933;SDS011;4012;48.896;9.192;2022-07-23T02:09:11;3.90;;;3.53;;
7933;SDS011;4012;48.896;9.192;2022-07-23T02:11:37;4.13;;;3.83;;
7933;SDS011;4012;48.896;9.192;2022-07-23T02:14:03;4.23;;;3.83;;
7933;SDS011;4012;48.896;9.192;2022-07-23T02:16:28;4.07;;;3.67;;
7933;SDS011;4012;48.896;9.192;2022-07-23T02:18:54;4.20;;;3.80;;
7933;SDS011;4012;48.896;9.192;2022-07-23T02:21:20;3.93;;;3.63;;
7933;SDS011;4012;48.896;9.192;2022-07-23T02:23:45;4.17;;;3.80;;
7933;SDS011;4012;48.896;9.192;2022-07-23T02:26:11;5.00;;;3.83;;
7933;SDS011;4012;48.896;9.192;2022-07-23T02:28:36;4.13;;;3.47;;
7933;SDS011;4012;48.896;9.192;2022-07-23T02:31:02;3.90;;;3.53;;
7933;SDS011;4012;48.896;9.192;2022-07-23T02:33:28;4.27;;;3.83;;
7933;SDS011;4012;48.896;9.192;2022-07-23T02:35:54;4.93;;;3.90;;
7933;SDS011;4012;48.896;9.192;2022-07-23T02:38:19;3.80;;;3.50;;
7933;SDS011;4012;48.896;9.192;2022-07-23T02:40:45;3.93;;;3.63;;
7933;SDS011;4012;48.896;9.192;2022-07-23T02:43:11;3.67;;;3.37;;
7933;SDS011;4012;48.896;9.192;2022-07-23T02:45:36;4.17;;;3.87;;
7933;SDS011;4012;48.896;9.192;2022-07-23T02:48:02;3.73;;;3.43;;
7933;SDS011;4012;48.896;9.192;2022-07-23T02:50:28;3.30;;;3.00;;
7933;SDS011;4012;48.896;9.192;2022-07-23T02:52:54;4.20;;;3.80;;
7933;SDS011;4012;48.896;9.192;2022-07-23T02:55:19;6.00;;;4.20;;
7933;SDS011;4012;48.896;9.192;2022-07-23T02:57:45;4.63;;;4.23;;
7933;SDS011;4012;48.896;9.192;2022-07-23T03:00:11;4.40;;;3.80;;
7933;SDS011;4012;48.896;9.192;2022-07-23T03:02:37;4.20;;;3.80;;
7933;SDS011;4012;48.896;9.192;2022-07-23T03:05:02;4.30;;;3.90;;
7933;SDS011;4012;48.896;9.192;2022-07-23T03:07:29;4.50;;;4.03;;
7933;SDS011;4012;48.896;9.192;2022-07-23T03:09:54;5.00;;;3.83;;
7933;SDS011;4012;48.896;9.192;2022-07-23T03:12:20;6.03;;;4.13;;
7933;SDS011;4012;48.896;9.192;2022-07-23T03:14:45;4.83;;;3.90;;
7933;SDS011;4012;48.896;9.192;2022-07-23T03:17:11;4.20;;;3.80;;
7933;SDS011;4012;48.896;9.192;2022-07-23T03:19:37;6.50;;;4.30;;
7933;SDS011;4012;48.896;9.192;2022-07-23T03:22:03;4.23;;;3.90;;
7933;SDS011;4012;48.896;9.192;2022-07-23T03:24:29;4.63;;;4.23;;
7933;SDS011;4012;48.896;9.192;2022-07-23T03:27:13;5.43;;;4.20;;
7933;SDS011;4012;48.896;9.192;2022-07-23T03:29:39;4.67;;;4.10;;
7933;SDS011;4012;48.896;9.192;2022-07-23T03:32:05;4.47;;;4.10;;
7933;SDS011;4012;48.896;9.192;2022-07-23T03:34:31;6.80;;;4.10;;
7933;SDS011;4012;48.896;9.192;2022-07-23T03:36:56;6.30;;;4.70;;
7933;SDS011;4012;48.896;9.192;2022-07-23T03:39:22;5.53;;;4.00;;
7933;SDS011;4012;48.896;9.192;2022-07-23T03:41:47;4.63;;;3.77;;
7933;SDS011;4012;48.896;9.192;2022-07-23T03:44:13;5.20;;;4.00;;
7933;SDS011;4012;48.896;9.192;2022-07-23T03:46:39;4.40;;;4.00;;
7933;SDS011;4012;48.896;9.192;2022-07-23T03:49:04;4.67;;;3.90;;
7933;SDS011;4012;48.896;9.192;2022-07-23T03:51:30;5.47;;;3.70;;
7933;SDS011;4012;48.896;9.192;2022-07-23T03:53:56;4.30;;;3.90;;
7933;SDS011;4012;48.896;9.192;2022-07-23T03:56:21;3.80;;;3.50;;
7933;SDS011;4012;48.896;9.192;2022-07-23T03:58:47;4.17;;;3.77;;
7933;SDS011;4012;48.896;9.192;2022-07-23T04:01:13;4.93;;;3.80;;
7933;SDS011;4012;48.896;9.192;2022-07-23T04:03:38;4.17;;;3.77;;
7933;SDS011;4012;48.896;9.192;2022-07-23T04:06:04;3.60;;;3.27;;
7933;SDS011;4012;48.896;9.192;2022-07-23T04:08:31;4.03;;;3.67;;
7933;SDS011;4012;48.896;9.192;2022-07-23T04:10:56;4.30;;;3.90;;
7933;SDS011;4012;48.896;9.192;2022-07-23T04:13:22;3.73;;;3.43;;
7933;SDS011;4012;48.896;9.192;2022-07-23T04:15:48;4.47;;;3.50;;
7933;SDS011;4012;48.896;9.192;2022-07-23T04:18:13;3.90;;;3.60;;
7933;SDS011;4012;48.896;9.192;2022-07-23T04:20:42;4.07;;;3.63;;
7933;SDS011;4012;48.896;9.192;2022-07-23T04:23:09;4.40;;;3.83;;
7933;SDS011;4012;48.896;9.192;2022-07-23T04:25:35;5.07;;;4.20;;
7933;SDS011;4012;48.896;9.192;2022-07-23T04:28:00;4.37;;;3.97;;
7933;SDS011;4012;48.896;9.192;2022-07-23T04:30:26;4.20;;;3.80;;
7933;SDS011;4012;48.896;9.192;2022-07-23T04:32:52;5.17;;;3.87;;
7933;SDS011;4012;48.896;9.192;2022-07-23T04:35:17;7.80;;;7.20;;
7933;SDS011;4012;48.896;9.192;2022-07-23T04:37:43;4.50;;;4.10;;
7933;SDS011;4012;48.896;9.192;2022-07-23T04:40:09;4.37;;;4.03;;
7933;SDS011;4012;48.896;9.192;2022-07-23T04:42:35;4.60;;;3.33;;
7933;SDS011;4012;48.896;9.192;2022-07-23T04:45:01;4.20;;;3.87;;
7933;SDS011;4012;48.896;9.192;2022-07-23T04:47:28;4.47;;;4.07;;
7933;SDS011;4012;48.896;9.192;2022-07-23T04:49:54;4.87;;;4.00;;
7933;SDS011;4012;48.896;9.192;2022-07-23T04:52:20;3.93;;;3.60;;
7933;SDS011;4012;48.896;9.192;2022-07-23T04:54:45;5.60;;;3.80;;
7933;SDS011;4012;48.896;9.192;2022-07-23T04:57:11;4.03;;;3.70;;
7933;SDS011;4012;48.896;9.192;2022-07-23T04:59:36;4.40;;;4.00;;
7933;SDS011;4012;48.896;9.192;2022-07-23T05:02:02;5.87;;;4.07;;
7933;SDS011;4012;48.896;9.192;2022-07-23T05:04:28;4.87;;;4.13;;
7933;SDS011;4012;48.896;9.192;2022-07-23T05:06:53;5.83;;;4.10;;
7933;SDS011;4012;48.896;9.192;2022-07-23T05:09:19;6.07;;;4.20;;
7933;SDS011;4012;48.896;9.192;2022-07-23T05:11:45;4.40;;;4.00;;
7933;SDS011;4012;48.896;9.192;2022-07-23T05:14:10;4.13;;;3.73;;
7933;SDS011;4012;48.896;9.192;2022-07-23T05:16:37;4.63;;;3.53;;
7933;SDS011;4012;48.896;9.192;2022-07-23T05:19:03;4.33;;;3.83;;
7933;SDS011;4012;48.896;9.192;2022-07-23T05:21:29;4.60;;;4.20;;
7933;SDS011;4012;48.896;9.192;2022-07-23T05:23:55;4.63;;;4.23;;
7933;SDS011;4012;48.896;9.192;2022-07-23T05:26:20;5.77;;;3.93;;
7933;SDS011;4012;48.896;9.192;2022-07-23T05:28:46;4.97;;;4.07;;
7933;SDS011;4012;48.896;9.192;2022-07-23T05:31:11;4.60;;;3.97;;
7933;SDS011;4012;48.896;9.192;2022-07-23T05:33:37;4.20;;;3.80;;
7933;SDS011;4012;48.896;9.192;2022-07-23T05:36:03;4.47;;;4.07;;
7933;SDS011;4012;48.896;9.192;2022-07-23T05:38:29;4.50;;;4.10;;
7933;SDS011;4012;48.896;9.192;2022-07-23T05:40:55;4.23;;;3.70;;
7933;SDS011;4012;48.896;9.192;2022-07-23T05:43:20;6.40;;;4.23;;
7933;SDS011;4012;48.896;9.192;2022-07-23T05:45:46;4.73;;;4.20;;
7933;SDS011;4012;48.896;9.192;2022-07-23T05:48:12;6.43;;;3.93;;
7933;SDS011;4012;48.896;9.192;2022-07-23T05:50:37;6.60;;;4.00;;
7933;SDS011;4012;48.896;9.192;2022-07-23T05:53:03;4.43;;;4.03;;
7933;SDS011;4012;48.896;9.192;2022-07-23T05:55:29;6.13;;;4.40;;
7933;SDS011;4012;48.896;9.192;2022-07-23T05:57:56;4.80;;;4.10;;
7933;SDS011;4012;48.896;9.192;2022-07-23T06:00:23;4.37;;;3.97;;
7933;SDS011;4012;48.896;9.192;2022-07-23T06:02:49;4.93;;;4.43;;
7933;SDS011;4012;48.896;9.192;2022-07-23T06:05:15;4.93;;;4.10;;
7933;SDS011;4012;48.896;9.192;2022-07-23T06:07:41;5.60;;;4.37;;
7933;SDS011;4012;48.896;9.192;2022-07-23T06:10:07;6.43;;;4.80;;
7933;SDS011;4012;48.896;9.192;2022-07-23T06:12:33;5.10;;;4.53;;
7933;SDS011;4012;48.896;9.192;2022-07-23T06:14:58;5.80;;;4.80;;
7933;SDS011;4012;48.896;9.192;2022-07-23T06:17:24;5.40;;;4.40;;
7933;SDS011;4012;48.896;9.192;2022-07-23T06:19:50;4.33;;;3.93;;
7933;SDS011;4012;48.896;9.192;2022-07-23T06:22:15;9.00;;;4.90;;
7933;SDS011;4012;48.896;9.192;2022-07-23T06:24:41;6.20;;;4.53;;
7933;SDS011;4012;48.896;9.192;2022-07-23T06:27:07;6.00;;;4.80;;
7933;SDS011;4012;48.896;9.192;2022-07-23T06:29:32;5.37;;;4.50;;
7933;SDS011;4012;48.896;9.192;2022-07-23T06:31:58;5.50;;;5.00;;
7933;SDS011;4012;48.896;9.192;2022-07-23T06:34:24;5.40;;;4.93;;
7933;SDS011;4012;48.896;9.192;2022-07-23T06:36:49;6.23;;;4.90;;
7933;SDS011;4012;48.896;9.192;2022-07-23T06:39:15;5.63;;;4.93;;
7933;SDS011;4012;48.896;9.192;2022-07-23T06:41:41;7.40;;;5.03;;
7933;SDS011;4012;48.896;9.192;2022-07-23T06:44:07;6.23;;;4.70;;
7933;SDS011;4012;48.896;9.192;2022-07-23T06:46:32;5.10;;;4.60;;
7933;SDS011;4012;48.896;9.192;2022-07-23T06:48:58;5.23;;;4.70;;
7933;SDS011;4012;48.896;9.192;2022-07-23T06:51:24;13.37;;;5.40;;
7933;SDS011;4012;48.896;9.192;2022-07-23T06:53:49;6.20;;;5.60;;
7933;SDS011;4012;48.896;9.192;2022-07-23T06:56:15;9.40;;;5.00;;
7933;SDS011;4012;48.896;9.192;2022-07-23T06:58:41;7.43;;;4.77;;
7933;SDS011;4012;48.896;9.192;2022-07-23T07:01:06;8.63;;;7.33;;
7933;SDS011;4012;48.896;9.192;2022-07-23T07:03:32;7.70;;;4.80;;
7933;SDS011;4012;48.896;9.192;2022-07-23T07:05:57;5.50;;;5.00;;
7933;SDS011;4012;48.896;9.192;2022-07-23T07:08:23;5.50;;;5.00;;
7933;SDS011;4012;48.896;9.192;2022-07-23T07:10:49;6.87;;;5.10;;
7933;SDS011;4012;48.896;9.192;2022-07-23T07:13:15;6.00;;;5.10;;
7933;SDS011;4012;48.896;9.192;2022-07-23T07:15:40;5.93;;;5.33;;
7933;SDS011;4012;48.896;9.192;2022-07-23T07:18:06;9.53;;;5.40;;
7933;SDS011;4012;48.896;9.192;2022-07-23T07:20:32;8.63;;;5.50;;
7933;SDS011;4012;48.896;9.192;2022-07-23T07:22:58;8.00;;;5.77;;
7933;SDS011;4012;48.896;9.192;2022-07-23T07:25:23;7.97;;;5.83;;
7933;SDS011;4012;48.896;9.192;2022-07-23T07:27:49;7.13;;;6.50;;
7933;SDS011;4012;48.896;9.192;2022-07-23T07:30:15;10.97;;;6.13;;
7933;SDS011;4012;48.896;9.192;2022-07-23T07:32:40;8.67;;;6.80;;
7933;SDS011;4012;48.896;9.192;2022-07-23T07:35:07;6.90;;;6.30;;
7933;SDS011;4012;48.896;9.192;2022-07-23T07:37:33;6.57;;;5.93;;
7933;SDS011;4012;48.896;9.192;2022-07-23T07:39:59;7.07;;;6.37;;
7933;SDS011;4012;48.896;9.192;2022-07-23T07:42:25;6.80;;;6.10;;
7933;SDS011;4012;48.896;9.192;2022-07-23T07:44:50;9.73;;;5.77;;
7933;SDS011;4012;48.896;9.192;2022-07-23T07:47:16;5.50;;;5.00;;
7933;SDS011;4012;48.896;9.192;2022-07-23T07:49:42;5.20;;;4.67;;
7933;SDS011;4012;48.896;9.192;2022-07-23T07:52:08;6.97;;;5.03;;
7933;SDS011;4012;48.896;9.192;2022-07-23T07:54:34;5.97;;;5.37;;
7933;SDS011;4012;48.896;9.192;2022-07-23T07:57:00;7.43;;;4.90;;
7933;SDS011;4012;48.896;9.192;2022-07-23T07:59:25;5.57;;;4.93;;
7933;SDS011;4012;48.896;9.192;2022-07-23T08:01:51;7.57;;;5.27;;
7933;SDS011;4012;48.896;9.192;2022-07-23T08:04:17;7.27;;;6.57;;
7933;SDS011;4012;48.896;9.192;2022-07-23T08:06:43;5.83;;;5.33;;
7933;SDS011;4012;48.896;9.192;2022-07-23T08:09:08;5.33;;;4.83;;
7933;SDS011;4012;48.896;9.192;2022-07-23T08:11:34;5.53;;;5.03;;
7933;SDS011;4012;48.896;9.192;2022-07-23T08:14:00;6.67;;;5.67;;
7933;SDS011;4012;48.896;9.192;2022-07-23T08:16:25;5.63;;;5.13;;
7933;SDS011;4012;48.896;9.192;2022-07-23T08:18:51;5.63;;;5.13;;
7933;SDS011;4012;48.896;9.192;2022-07-23T08:21:16;5.30;;;4.80;;
7933;SDS011;4012;48.896;9.192;2022-07-23T08:23:42;5.30;;;4.80;;
7933;SDS011;4012;48.896;9.192;2022-07-23T08:26:08;6.43;;;5.20;;
7933;SDS011;4012;48.896;9.192;2022-07-23T08:28:33;6.93;;;5.70;;
7933;SDS011;4012;48.896;9.192;2022-07-23T08:31:02;5.60;;;5.10;;
7933;SDS011;4012;48.896;9.192;2022-07-23T08:33:30;5.13;;;4.73;;
7933;SDS011;4012;48.896;9.192;2022-07-23T08:35:56;6.50;;;4.77;;
7933;SDS011;4012;48.896;9.192;2022-07-23T08:38:22;5.67;;;5.13;;
7933;SDS011;4012;48.896;9.192;2022-07-23T08:40:50;5.97;;;4.80;;
7933;SDS011;4012;48.896;9.192;2022-07-23T08:43:18;5.00;;;4.60;;
7933;SDS011;4012;48.896;9.192;2022-07-23T08:45:56;4.40;;;4.00;;
7933;SDS011;4012;48.896;9.192;2022-07-23T08:48:27;6.83;;;4.57;;
7933;SDS011;4012;48.896;9.192;2022-07-23T08:50:55;4.37;;;3.97;;
7933;SDS011;4012;48.896;9.192;2022-07-23T08:53:23;6.27;;;4.17;;
7933;SDS011;4012;48.896;9.192;2022-07-23T08:55:51;4.20;;;3.80;;
7933;SDS011;4012;48.896;9.192;2022-07-23T08:58:18;4.87;;;4.00;;
7933;SDS011;4012;48.896;9.192;2022-07-23T09:00:46;4.50;;;3.83;;
7933;SDS011;4012;48.896;9.192;2022-07-23T09:03:19;4.00;;;3.63;;
7933;SDS011;4012;48.896;9.192;2022-07-23T09:05:46;4.53;;;4.13;;
7933;SDS011;4012;48.896;9.192;2022-07-23T09:11:04;4.63;;;3.80;;
7933;SDS011;4012;48.896;9.192;2022-07-23T09:16:00;4.65;;;3.72;;
7933;SDS011;4012;48.896;9.192;2022-07-23T09:18:36;5.93;;;4.00;;
7933;SDS011;4012;48.896;9.192;2022-07-23T09:23:36;4.57;;;4.13;;
7933;SDS011;4012;48.896;9.192;2022-07-23T09:26:06;5.03;;;4.13;;
7933;SDS011;4012;48.896;9.192;2022-07-23T09:34:10;4.10;;;3.70;;
7933;SDS011;4012;48.896;9.192;2022-07-23T09:36:36;3.73;;;3.40;;
7933;SDS011;4012;48.896;9.192;2022-07-23T09:39:02;4.18;;;3.63;;
7933;SDS011;4012;48.896;9.192;2022-07-23T09:41:33;7.18;;;4.28;;
7933;SDS011;4012;48.896;9.192;2022-07-23T09:44:10;7.47;;;4.40;;
7933;SDS011;4012;48.896;9.192;2022-07-23T09:46:41;4.60;;;3.80;;
7933;SDS011;4012;48.896;9.192;2022-07-23T09:51:45;5.05;;;3.83;;
7933;SDS011;4012;48.896;9.192;2022-07-23T09:54:26;3.70;;;3.40;;
7933;SDS011;4012;48.896;9.192;2022-07-23T09:56:56;4.15;;;3.40;;
7933;SDS011;4012;48.896;9.192;2022-07-23T09:59:28;3.75;;;3.45;;
7933;SDS011;4012;48.896;9.192;2022-07-23T10:01:56;4.68;;;3.70;;
7933;SDS011;4012;48.896;9.192;2022-07-23T10:04:24;6.47;;;3.92;;
7933;SDS011;4012;48.896;9.192;2022-07-23T10:06:56;4.45;;;4.05;;
7933;SDS011;4012;48.896;9.192;2022-07-23T10:09:27;4.15;;;3.47;;
7933;SDS011;4012;48.896;9.192;2022-07-23T10:11:59;5.53;;;3.88;;
7933;SDS011;4012;48.896;9.192;2022-07-23T10:14:49;4.63;;;4.22;;
7933;SDS011;4012;48.896;9.192;2022-07-23T10:17:16;4.93;;;4.50;;
7933;SDS011;4012;48.896;9.192;2022-07-23T10:19:42;4.47;;;4.07;;
7933;SDS011;4012;48.896;9.192;2022-07-23T10:22:13;6.05;;;4.30;;
7933;SDS011;4012;48.896;9.192;2022-07-23T10:30:22;5.80;;;3.88;;
7933;SDS011;4012;48.896;9.192;2022-07-23T10:38:19;5.82;;;4.05;;
7933;SDS011;4012;48.896;9.192;2022-07-23T10:41:01;5.95;;;4.20;;
7933;SDS011;4012;48.896;9.192;2022-07-23T10:43:29;3.90;;;3.45;;
7933;SDS011;4012;48.896;9.192;2022-07-23T10:45:55;3.90;;;3.60;;
7933;SDS011;4012;48.896;9.192;2022-07-23T10:48:41;5.22;;;4.13;;
7933;SDS011;4012;48.896;9.192;2022-07-23T10:56:15;6.30;;;3.60;;
7933;SDS011;4012;48.896;9.192;2022-07-23T10:58:47;4.43;;;3.43;;
7933;SDS011;4012;48.896;9.192;2022-07-23T11:04:03;4.20;;;3.60;;
7933;SDS011;4012;48.896;9.192;2022-07-23T11:07:32;4.60;;;3.80;;
7933;SDS011;4012;48.896;9.192;2022-07-23T11:25:08;4.37;;;3.97;;
7933;SDS011;4012;48.896;9.192;2022-07-23T11:27:38;5.23;;;3.80;;
7933;SDS011;4012;48.896;9.192;2022-07-23T11:30:56;4.47;;;4.07;;
7933;SDS011;4012;48.896;9.192;2022-07-23T11:35:33;4.50;;;4.10;;
7933;SDS011;4012;48.896;9.192;2022-07-23T11:38:07;4.37;;;3.97;;
7933;SDS011;4012;48.896;9.192;2022-07-23T11:40:34;4.63;;;4.10;;
7933;SDS011;4012;48.896;9.192;2022-07-23T11:43:01;5.03;;;4.53;;
7933;SDS011;4012;48.896;9.192;2022-07-23T11:45:31;5.73;;;3.73;;
7933;SDS011;4012;48.896;9.192;2022-07-23T11:47:59;4.33;;;3.83;;
7933;SDS011;4012;48.896;9.192;2022-07-23T11:50:25;4.07;;;3.77;;
7933;SDS011;4012;48.896;9.192;2022-07-23T11:52:51;6.30;;;3.77;;
7933;SDS011;4012;48.896;9.192;2022-07-23T11:55:17;5.20;;;4.63;;
7933;SDS011;4012;48.896;9.192;2022-07-23T11:57:44;5.63;;;4.30;;
7933;SDS011;4012;48.896;9.192;2022-07-23T12:00:14;5.27;;;4.33;;
7933;SDS011;4012;48.896;9.192;2022-07-23T12:02:52;4.30;;;3.80;;
7933;SDS011;4012;48.896;9.192;2022-07-23T12:05:30;4.53;;;4.13;;
7933;SDS011;4012;48.896;9.192;2022-07-23T12:07:58;4.83;;;4.40;;
7933;SDS011;4012;48.896;9.192;2022-07-23T12:10:26;4.80;;;4.40;;
7933;SDS011;4012;48.896;9.192;2022-07-23T12:12:56;5.13;;;4.10;;
7933;SDS011;4012;48.896;9.192;2022-07-23T12:15:24;5.83;;;4.97;;
7933;SDS011;4012;48.896;9.192;2022-07-23T12:18:11;6.07;;;4.47;;
7933;SDS011;4012;48.896;9.192;2022-07-23T12:20:44;4.77;;;4.37;;
7933;SDS011;4012;48.896;9.192;2022-07-23T12:23:13;5.93;;;4.47;;
7933;SDS011;4012;48.896;9.192;2022-07-23T12:25:41;4.23;;;3.80;;
7933;SDS011;4012;48.896;9.192;2022-07-23T12:28:10;5.23;;;4.73;;
7933;SDS011;4012;48.896;9.192;2022-07-23T12:35:58;5.17;;;4.67;;
7933;SDS011;4012;48.896;9.192;2022-07-23T12:38:26;4.77;;;4.30;;
7933;SDS011;4012;48.896;9.192;2022-07-23T12:43:27;5.90;;;4.83;;
7933;SDS011;4012;48.896;9.192;2022-07-23T12:48:32;5.10;;;4.60;;
7933;SDS011;4012;48.896;9.192;2022-07-23T12:55:58;5.23;;;4.20;;
7933;SDS011;4012;48.896;9.192;2022-07-23T12:58:25;6.73;;;4.53;;
7933;SDS011;4012;48.896;9.192;2022-07-23T13:00:51;7.30;;;5.50;;
7933;SDS011;4012;48.896;9.192;2022-07-23T13:03:35;5.50;;;5.00;;
7933;SDS011;4012;48.896;9.192;2022-07-23T13:06:09;5.53;;;4.90;;
7933;SDS011;4012;48.896;9.192;2022-07-23T13:08:38;5.30;;;4.80;;
7933;SDS011;4012;48.896;9.192;2022-07-23T13:11:05;5.80;;;5.10;;
7933;SDS011;4012;48.896;9.192;2022-07-23T13:13:32;6.10;;;4.90;;
7933;SDS011;4012;48.896;9.192;2022-07-23T13:15:59;5.07;;;4.57;;
7933;SDS011;4012;48.896;9.192;2022-07-23T13:18:26;7.97;;;5.90;;
7933;SDS011;4012;48.896;9.192;2022-07-23T13:20:52;7.43;;;4.83;;
7933;SDS011;4012;48.896;9.192;2022-07-23T13:23:19;6.83;;;6.23;;
7933;SDS011;4012;48.896;9.192;2022-07-23T13:25:45;6.40;;;5.80;;
7933;SDS011;4012;48.896;9.192;2022-07-23T13:28:11;5.70;;;4.93;;
7933;SDS011;4012;48.896;9.192;2022-07-23T13:30:38;6.43;;;5.00;;
7933;SDS011;4012;48.896;9.192;2022-07-23T13:33:05;6.67;;;4.90;;
7933;SDS011;4012;48.896;9.192;2022-07-23T13:35:31;9.67;;;6.83;;
7933;SDS011;4012;48.896;9.192;2022-07-23T13:37:59;5.13;;;4.73;;
7933;SDS011;4012;48.896;9.192;2022-07-23T13:40:25;5.20;;;4.70;;
7933;SDS011;4012;48.896;9.192;2022-07-23T13:42:51;7.00;;;6.40;;
7933;SDS011;4012;48.896;9.192;2022-07-23T13:45:16;6.43;;;5.60;;
7933;SDS011;4012;48.896;9.192;2022-07-23T13:47:42;5.30;;;4.90;;
7933;SDS011;4012;48.896;9.192;2022-07-23T13:50:08;7.97;;;5.27;;
7933;SDS011;4012;48.896;9.192;2022-07-23T13:52:36;6.53;;;5.17;;
7933;SDS011;4012;48.896;9.192;2022-07-23T13:55:03;6.00;;;4.67;;
7933;SDS011;4012;48.896;9.192;2022-07-23T13:57:31;6.13;;;5.27;;
7933;SDS011;4012;48.896;9.192;2022-07-23T13:59:57;7.63;;;5.53;;
7933;SDS011;4012;48.896;9.192;2022-07-23T14:02:23;5.27;;;4.77;;
7933;SDS011;4012;48.896;9.192;2022-07-23T14:04:48;5.20;;;4.43;;
7933;SDS011;4012;48.896;9.192;2022-07-23T14:07:14;9.20;;;4.53;;
7933;SDS011;4012;48.896;9.192;2022-07-23T14:09:40;5.50;;;4.43;;
7933;SDS011;4012;48.896;9.192;2022-07-23T14:12:06;5.37;;;4.30;;
7933;SDS011;4012;48.896;9.192;2022-07-23T14:14:32;5.77;;;5.20;;
7933;SDS011;4012;48.896;9.192;2022-07-23T14:16:58;5.73;;;4.80;;
7933;SDS011;4012;48.896;9.192;2022-07-23T14:19:24;6.30;;;5.00;;
7933;SDS011;4012;48.896;9.192;2022-07-23T14:21:49;5.27;;;4.60;;
7933;SDS011;4012;48.896;9.192;2022-07-23T14:24:15;6.57;;;4.50;;
7933;SDS011;4012;48.896;9.192;2022-07-23T14:26:41;5.27;;;4.83;;
7933;SDS011;4012;48.896;9.192;2022-07-23T14:29:07;6.03;;;5.00;;
7933;SDS011;4012;48.896;9.192;2022-07-23T14:31:33;4.77;;;4.40;;
7933;SDS011;4012;48.896;9.192;2022-07-23T14:33:59;5.63;;;5.13;;
7933;SDS011;4012;48.896;9.192;2022-07-23T14:36:25;5.27;;;4.77;;
7933;SDS011;4012;48.896;9.192;2022-07-23T14:38:51;5.33;;;4.87;;
7933;SDS011;4012;48.896;9.192;2022-07-23T14:41:17;5.60;;;5.10;;
7933;SDS011;4012;48.896;9.192;2022-07-23T14:43:42;4.97;;;4.43;;
7933;SDS011;4012;48.896;9.192;2022-07-23T14:46:08;6.40;;;4.63;;
7933;SDS011;4012;48.896;9.192;2022-07-23T14:48:36;6.60;;;4.93;;
7933;SDS011;4012;48.896;9.192;2022-07-23T14:51:02;5.13;;;4.73;;
7933;SDS011;4012;48.896;9.192;2022-07-23T14:53:27;7.17;;;4.97;;
7933;SDS011;4012;48.896;9.192;2022-07-23T14:55:53;5.63;;;5.13;;
7933;SDS011;4012;48.896;9.192;2022-07-23T14:58:21;7.13;;;5.20;;
7933;SDS011;4012;48.896;9.192;2022-07-23T15:00:50;5.40;;;4.90;;
7933;SDS011;4012;48.896;9.192;2022-07-23T15:03:16;5.40;;;4.90;;
7933;SDS011;4012;48.896;9.192;2022-07-23T15:05:42;5.00;;;4.60;;
7933;SDS011;4012;48.896;9.192;2022-07-23T15:08:07;5.83;;;5.23;;
7933;SDS011;4012;48.896;9.192;2022-07-23T15:10:33;6.17;;;4.60;;
7933;SDS011;4012;48.896;9.192;2022-07-23T15:12:59;5.43;;;4.93;;
7933;SDS011;4012;48.896;9.192;2022-07-23T15:15:24;5.30;;;4.70;;
7933;SDS011;4012;48.896;9.192;2022-07-23T15:17:50;5.33;;;4.83;;
7933;SDS011;4012;48.896;9.192;2022-07-23T15:20:16;5.97;;;4.97;;
7933;SDS011;4012;48.896;9.192;2022-07-23T15:22:42;6.50;;;5.00;;
7933;SDS011;4012;48.896;9.192;2022-07-23T15:25:10;6.67;;;5.30;;
7933;SDS011;4012;48.896;9.192;2022-07-23T15:27:36;5.43;;;4.93;;
7933;SDS011;4012;48.896;9.192;2022-07-23T15:30:03;4.97;;;4.47;;
7933;SDS011;4012;48.896;9.192;2022-07-23T15:32:29;5.70;;;4.83;;
7933;SDS011;4012;48.896;9.192;2022-07-23T15:34:55;7.00;;;5.50;;
7933;SDS011;4012;48.896;9.192;2022-07-23T15:37:21;9.10;;;5.10;;
7933;SDS011;4012;48.896;9.192;2022-07-23T15:39:48;5.40;;;4.90;;
7933;SDS011;4012;48.896;9.192;2022-07-23T15:42:14;7.33;;;5.40;;
7933;SDS011;4012;48.896;9.192;2022-07-23T15:44:40;6.10;;;4.70;;
7933;SDS011;4012;48.896;9.192;2022-07-23T15:47:06;5.93;;;4.80;;
7933;SDS011;4012;48.896;9.192;2022-07-23T15:49:37;5.70;;;5.10;;
7933;SDS011;4012;48.896;9.192;2022-07-23T15:52:03;5.80;;;5.27;;
7933;SDS011;4012;48.896;9.192;2022-07-23T15:54:29;5.37;;;4.77;;
7933;SDS011;4012;48.896;9.192;2022-07-23T15:56:55;5.20;;;4.70;;
7933;SDS011;4012;48.896;9.192;2022-07-23T15:59:21;6.60;;;5.90;;
7933;SDS011;4012;48.896;9.192;2022-07-23T16:01:46;6.33;;;5.83;;
7933;SDS011;4012;48.896;9.192;2022-07-23T16:04:12;6.07;;;5.50;;
7933;SDS011;4012;48.896;9.192;2022-07-23T16:06:38;7.63;;;5.43;;
7933;SDS011;4012;48.896;9.192;2022-07-23T16:09:06;6.00;;;5.50;;
7933;SDS011;4012;48.896;9.192;2022-07-23T16:11:32;5.37;;;4.87;;
7933;SDS011;4012;48.896;9.192;2022-07-23T16:13:58;5.77;;;4.63;;
7933;SDS011;4012;48.896;9.192;2022-07-23T16:16:24;7.93;;;6.77;;
7933;SDS011;4012;48.896;9.192;2022-07-23T16:18:51;5.97;;;5.40;;
7933;SDS011;4012;48.896;9.192;2022-07-23T16:21:17;6.43;;;5.87;;